createdAt,value
2023-03-06T00:00:17.793Z,4.25
2023-03-06T00:02:46.212Z,4.28
2023-03-06T00:05:14.466Z,3.45
2023-03-06T00:07:42.889Z,2.92
2023-03-06T00:10:15.487Z,3.20
2023-03-06T00:12:43.481Z,3.92
2023-03-06T00:15:12.117Z,3.30
2023-03-06T00:17:40.052Z,3.05
2023-03-06T00:20:10.063Z,3.80
2023-03-06T00:22:40.796Z,3.10
2023-03-06T00:25:13.088Z,3.88
2023-03-06T00:27:42.908Z,3.33
2023-03-06T00:30:13.475Z,4.78
2023-03-06T00:32:44.032Z,4.28
2023-03-06T00:35:12.205Z,4.20
2023-03-06T00:37:41.081Z,4.07
2023-03-06T00:40:11.272Z,3.63
2023-03-06T00:42:39.224Z,4.03
2023-03-06T00:45:10.310Z,3.55
2023-03-06T00:47:38.714Z,4.60
2023-03-06T00:50:07.031Z,3.85
2023-03-06T00:52:34.930Z,3.90
2023-03-06T00:55:03.250Z,5.97
2023-03-06T00:57:31.234Z,3.38
2023-03-06T00:59:59.174Z,3.90
2023-03-06T01:02:28.676Z,3.53
2023-03-06T01:04:56.902Z,3.90
2023-03-06T01:07:27.193Z,3.70
2023-03-06T01:09:55.148Z,5.00
2023-03-06T01:12:23.647Z,3.25
2023-03-06T01:14:52.673Z,3.30
2023-03-06T01:17:20.612Z,3.47
2023-03-06T01:19:49.934Z,3.95
2023-03-06T01:22:17.868Z,5.15
2023-03-06T01:24:45.807Z,2.28
2023-03-06T01:27:13.774Z,3.88
2023-03-06T01:29:41.708Z,3.78
2023-03-06T01:32:09.912Z,4.03
2023-03-06T01:34:37.877Z,3.60
2023-03-06T01:37:07.108Z,2.92
2023-03-06T01:39:35.064Z,4.38
2023-03-06T01:42:06.207Z,3.40
2023-03-06T01:44:34.223Z,3.17
2023-03-06T01:47:04.250Z,3.10
2023-03-06T01:49:35.214Z,3.28
2023-03-06T01:52:05.988Z,3.70
2023-03-06T01:54:41.479Z,2.03
2023-03-06T01:57:14.477Z,3.67
2023-03-06T01:59:43.999Z,2.95
2023-03-06T02:02:13.518Z,3.00
2023-03-06T02:04:44.169Z,3.35
2023-03-06T02:07:13.073Z,3.70
2023-03-06T02:09:42.394Z,3.58
2023-03-06T02:12:16.598Z,3.03
2023-03-06T02:14:44.983Z,4.10
2023-03-06T02:17:15.552Z,2.55
2023-03-06T02:19:51.126Z,4.38
2023-03-06T02:22:20.059Z,3.72
2023-03-06T02:24:54.850Z,4.00
2023-03-06T02:27:25.508Z,3.95
2023-03-06T02:29:57.465Z,4.72
2023-03-06T02:32:25.534Z,6.97
2023-03-06T02:34:57.084Z,4.80
2023-03-06T02:37:27.850Z,5.43
2023-03-06T02:40:09.180Z,6.50
2023-03-06T02:42:38.485Z,5.82
2023-03-06T02:45:12.719Z,4.97
2023-03-06T02:47:42.056Z,6.07
2023-03-06T02:50:11.191Z,7.90
2023-03-06T02:52:39.106Z,5.78
2023-03-06T02:55:07.986Z,5.00
2023-03-06T02:57:37.670Z,3.22
2023-03-06T03:00:06.653Z,3.53
2023-03-06T03:02:35.261Z,3.60
2023-03-06T03:05:03.269Z,4.32
2023-03-06T03:07:31.787Z,2.50
2023-03-06T03:09:59.915Z,3.88
2023-03-06T03:12:28.671Z,3.20
2023-03-06T03:14:59.235Z,3.40
2023-03-06T03:17:28.473Z,6.07
2023-03-06T03:19:56.442Z,2.72
2023-03-06T03:22:24.749Z,5.85
2023-03-06T03:24:52.701Z,5.80
2023-03-06T03:27:20.703Z,5.35
2023-03-06T03:29:48.885Z,7.70
2023-03-06T03:32:18.539Z,3.22
2023-03-06T03:34:46.992Z,4.45
2023-03-06T03:37:14.883Z,4.25
2023-03-06T03:39:43.965Z,3.97
2023-03-06T03:42:13.142Z,4.45
2023-03-06T03:44:41.244Z,5.38
2023-03-06T03:47:09.326Z,2.83
2023-03-06T03:49:39.762Z,5.45
2023-03-06T03:52:08.746Z,2.35
2023-03-06T03:54:38.870Z,4.35
2023-03-06T03:57:06.939Z,3.50
2023-03-06T03:59:45.935Z,4.50
2023-03-06T04:02:21.616Z,3.95
2023-03-06T04:04:59.730Z,3.13
2023-03-06T04:07:28.079Z,1.40
2023-03-06T04:09:56.504Z,2.00
2023-03-06T04:12:25.876Z,1.70
2023-03-06T04:14:53.905Z,1.85
2023-03-06T04:17:21.920Z,1.45
2023-03-06T04:19:50.156Z,2.30
2023-03-06T04:22:20.272Z,1.85
2023-03-06T04:24:49.297Z,2.22
2023-03-06T04:27:18.445Z,2.00
2023-03-06T04:29:46.648Z,2.22
2023-03-06T04:32:14.629Z,1.63
2023-03-06T04:34:42.536Z,2.20
2023-03-06T04:37:18.894Z,1.65
2023-03-06T04:39:48.575Z,2.40
2023-03-06T04:42:16.526Z,2.20
2023-03-06T04:44:44.822Z,1.85
2023-03-06T04:47:12.759Z,3.63
2023-03-06T04:49:40.758Z,2.17
2023-03-06T04:52:09.031Z,2.50
2023-03-06T04:54:37.016Z,2.40
2023-03-06T04:57:06.441Z,1.95
2023-03-06T04:59:34.418Z,2.38
2023-03-06T05:02:02.341Z,2.22
2023-03-06T05:04:30.286Z,2.63
2023-03-06T05:06:58.193Z,3.00
2023-03-06T05:09:26.131Z,3.08
2023-03-06T05:11:54.024Z,2.35
2023-03-06T05:14:24.679Z,2.95
2023-03-06T05:16:52.599Z,3.10
2023-03-06T05:19:20.701Z,2.78
2023-03-06T05:21:48.832Z,3.70
2023-03-06T05:24:16.875Z,2.85
2023-03-06T05:26:45.824Z,3.67
2023-03-06T05:29:13.862Z,2.88
2023-03-06T05:31:43.241Z,3.50
2023-03-06T05:34:13.908Z,4.30
2023-03-06T05:36:41.987Z,3.33
2023-03-06T05:39:10.502Z,3.72
2023-03-06T05:41:38.389Z,4.05
2023-03-06T05:44:06.461Z,3.47
2023-03-06T05:46:34.367Z,2.78
2023-03-06T05:49:03.585Z,3.05
2023-03-06T05:51:31.726Z,4.20
2023-03-06T05:53:59.689Z,3.17
2023-03-06T05:56:27.576Z,2.92
2023-03-06T05:58:55.518Z,2.45
2023-03-06T06:01:25.269Z,4.50
2023-03-06T06:03:53.306Z,1.63
2023-03-06T06:06:22.732Z,2.22
2023-03-06T06:08:50.748Z,3.50
2023-03-06T06:11:20.798Z,3.05
2023-03-06T06:13:49.872Z,2.05
2023-03-06T06:16:19.052Z,2.13
2023-03-06T06:18:47.653Z,2.58
2023-03-06T06:21:15.992Z,2.30
2023-03-06T06:23:45.371Z,2.63
2023-03-06T06:26:13.342Z,2.20
2023-03-06T06:28:41.413Z,3.35
2023-03-06T06:31:10.735Z,1.60
2023-03-06T06:33:39.043Z,1.67
2023-03-06T06:36:14.817Z,1.55
2023-03-06T06:38:42.762Z,1.45
2023-03-06T06:44:01.522Z,1.30
2023-03-06T06:47:18.161Z,1.33
2023-03-06T06:49:18.424Z,2.03
2023-03-06T06:51:46.792Z,2.10
2023-03-06T06:54:14.879Z,1.42
2023-03-06T06:56:44.123Z,1.52
2023-03-06T06:59:17.096Z,1.63
2023-03-06T07:01:45.739Z,1.20
2023-03-06T07:04:22.957Z,1.60
2023-03-06T07:06:52.287Z,1.10
2023-03-06T07:09:22.411Z,1.35
2023-03-06T07:11:52.098Z,1.45
2023-03-06T07:14:21.932Z,1.10
2023-03-06T07:16:49.837Z,1.38
2023-03-06T07:19:17.814Z,1.83
2023-03-06T07:21:45.696Z,1.75
2023-03-06T07:24:13.690Z,1.35
2023-03-06T07:26:47.163Z,1.10
2023-03-06T07:29:16.481Z,1.65
2023-03-06T07:31:44.699Z,1.23
2023-03-06T07:34:14.673Z,1.30
2023-03-06T07:36:42.692Z,1.40
2023-03-06T07:39:11.078Z,1.58
2023-03-06T07:41:39.044Z,1.35
2023-03-06T07:44:07.062Z,1.00
2023-03-06T07:46:36.447Z,0.90
2023-03-06T07:49:04.477Z,1.42
2023-03-06T07:51:32.361Z,1.10
2023-03-06T07:54:00.322Z,0.90
2023-03-06T07:56:28.252Z,1.17
2023-03-06T07:58:57.456Z,1.17
2023-03-06T08:01:30.637Z,2.15
2023-03-06T08:04:04.602Z,1.10
2023-03-06T08:06:33.643Z,1.30
2023-03-06T08:09:07.682Z,1.10
2023-03-06T08:11:35.571Z,1.48
2023-03-06T08:14:04.254Z,0.90
2023-03-06T08:16:32.322Z,1.73
2023-03-06T08:19:00.322Z,2.30
2023-03-06T08:21:30.337Z,1.17
2023-03-06T08:23:58.343Z,1.10
2023-03-06T08:26:28.122Z,0.90
2023-03-06T08:28:57.672Z,1.63
2023-03-06T08:31:28.968Z,1.80
2023-03-06T08:33:59.018Z,1.30
2023-03-06T08:36:27.352Z,1.65
2023-03-06T08:38:59.540Z,1.40
2023-03-06T08:41:28.235Z,1.20
2023-03-06T08:43:59.311Z,1.00
2023-03-06T08:46:31.420Z,0.90
2023-03-06T08:49:02.405Z,1.67
2023-03-06T08:51:30.581Z,1.10
2023-03-06T08:54:00.516Z,1.30
2023-03-06T08:56:30.572Z,1.10
2023-03-06T08:59:00.146Z,1.30
2023-03-06T09:01:30.354Z,2.00
2023-03-06T09:04:00.906Z,1.40
2023-03-06T09:06:32.065Z,1.42
2023-03-06T09:09:01.531Z,1.23
2023-03-06T09:11:30.008Z,3.10
2023-03-06T09:13:59.112Z,1.58
2023-03-06T09:16:27.199Z,1.30
2023-03-06T09:18:55.436Z,1.52
2023-03-06T09:21:25.526Z,1.17
2023-03-06T09:23:53.860Z,1.20
2023-03-06T09:26:32.846Z,1.63
2023-03-06T09:29:08.222Z,1.88
2023-03-06T09:31:36.229Z,1.52
2023-03-06T09:34:05.807Z,1.20
2023-03-06T09:36:45.702Z,1.70
2023-03-06T09:39:21.585Z,1.17
2023-03-06T09:41:51.791Z,2.03
2023-03-06T09:44:22.657Z,1.98
2023-03-06T09:47:28.685Z,1.80
2023-03-06T09:50:12.760Z,1.65
2023-03-06T09:52:48.420Z,1.30
2023-03-06T09:55:19.364Z,1.27
2023-03-06T09:57:55.600Z,1.20
2023-03-06T10:00:30.016Z,0.98
2023-03-06T10:03:16.677Z,1.02
2023-03-06T10:05:48.288Z,1.05
2023-03-06T10:08:24.825Z,0.80
2023-03-06T10:10:59.521Z,1.95
2023-03-06T10:13:36.556Z,1.00
2023-03-06T10:16:13.288Z,1.42
2023-03-06T10:18:41.321Z,2.97
2023-03-06T10:21:36.791Z,1.85
2023-03-06T10:24:18.278Z,1.00
2023-03-06T10:26:55.501Z,2.55
2023-03-06T10:29:39.297Z,1.15
2023-03-06T10:32:19.135Z,1.70
2023-03-06T10:34:47.171Z,1.20
2023-03-06T10:37:20.475Z,0.90
2023-03-06T10:39:54.407Z,0.90
2023-03-06T10:42:22.374Z,1.27
2023-03-06T10:45:10.785Z,1.02
2023-03-06T10:47:40.276Z,1.10
2023-03-06T10:50:25.626Z,1.20
2023-03-06T10:53:01.462Z,1.08
2023-03-06T10:55:34.340Z,1.25
2023-03-06T10:58:18.210Z,1.52
2023-03-06T11:00:55.969Z,2.20
2023-03-06T11:03:25.431Z,1.60
2023-03-06T11:06:12.179Z,1.30
2023-03-06T11:08:42.326Z,1.58
2023-03-06T11:11:18.529Z,1.10
2023-03-06T11:13:58.781Z,1.50
2023-03-06T11:16:30.365Z,1.40
2023-03-06T11:19:00.526Z,1.20
2023-03-06T11:21:31.823Z,1.60
2023-03-06T11:24:05.976Z,1.85
2023-03-06T11:26:48.084Z,2.17
2023-03-06T11:29:40.558Z,1.30
2023-03-06T11:32:16.090Z,1.65
2023-03-06T11:34:51.682Z,2.47
2023-03-06T11:37:30.848Z,1.50
2023-03-06T11:40:09.154Z,2.20
2023-03-06T11:42:41.690Z,3.40
2023-03-06T11:45:26.225Z,2.25
2023-03-06T11:48:10.285Z,1.75
2023-03-06T11:50:42.462Z,2.25
2023-03-06T11:53:12.908Z,1.88
2023-03-06T11:55:46.733Z,1.35
2023-03-06T11:58:46.442Z,2.05
2023-03-06T12:01:23.944Z,1.65
2023-03-06T12:04:26.883Z,1.77
2023-03-06T12:07:07.240Z,1.58
2023-03-06T12:09:45.854Z,1.92
2023-03-06T12:12:33.783Z,1.52
2023-03-06T12:15:23.265Z,1.40
2023-03-06T12:18:14.822Z,1.40
2023-03-06T12:21:07.174Z,1.88
2023-03-06T12:23:54.899Z,1.40
2023-03-06T12:26:35.940Z,1.55
2023-03-06T12:29:15.626Z,1.50
2023-03-06T12:31:53.867Z,1.27
2023-03-06T12:34:36.451Z,2.22
2023-03-06T12:37:17.693Z,3.10
2023-03-06T12:39:58.238Z,1.30
2023-03-06T12:42:40.266Z,1.80
2023-03-06T12:45:29.433Z,1.42
2023-03-06T12:47:59.057Z,2.15
2023-03-06T12:50:28.999Z,1.88
2023-03-06T12:53:03.298Z,1.13
2023-03-06T12:55:41.060Z,1.23
2023-03-06T12:58:47.208Z,1.50
2023-03-06T13:01:32.520Z,2.00
2023-03-06T13:04:20.060Z,1.42
2023-03-06T13:07:01.822Z,1.20
2023-03-06T13:09:38.272Z,1.00
2023-03-06T13:12:26.609Z,1.67
2023-03-06T13:15:00.297Z,1.52
2023-03-06T13:17:35.235Z,2.60
2023-03-06T13:20:28.982Z,2.30
2023-03-06T13:22:57.704Z,3.47
2023-03-06T13:25:47.883Z,2.15
2023-03-06T13:28:40.972Z,1.83
2023-03-06T13:31:18.202Z,1.55
2023-03-06T13:33:59.322Z,2.08
2023-03-06T13:36:30.002Z,2.88
2023-03-06T13:39:17.497Z,1.98
2023-03-06T13:41:58.674Z,1.73
2023-03-06T13:44:47.717Z,1.67
2023-03-06T13:48:10.582Z,1.73
2023-03-06T13:50:40.617Z,1.95
2023-03-06T13:53:49.583Z,2.45
2023-03-06T13:56:39.585Z,1.70
2023-03-06T13:59:34.756Z,2.25
2023-03-06T14:02:15.952Z,2.50
2023-03-06T14:04:59.285Z,1.60
2023-03-06T14:07:29.888Z,1.42
2023-03-06T14:10:09.519Z,1.40
2023-03-06T14:12:39.419Z,2.75
2023-03-06T14:15:18.360Z,2.67
2023-03-06T14:17:55.412Z,1.50
2023-03-06T14:20:32.172Z,1.15
2023-03-06T14:23:16.319Z,1.83
2023-03-06T14:25:47.007Z,2.55
2023-03-06T14:28:23.882Z,2.17
2023-03-06T14:30:54.643Z,1.60
2023-03-06T14:33:32.605Z,2.00
2023-03-06T14:36:03.763Z,2.15
2023-03-06T14:38:37.301Z,1.38
2023-03-06T14:41:06.618Z,2.17
2023-03-06T14:43:34.648Z,2.55
2023-03-06T14:46:06.358Z,2.28
2023-03-06T14:48:44.156Z,3.75
2023-03-06T14:51:17.881Z,1.50
2023-03-06T14:53:49.878Z,1.48
2023-03-06T14:56:20.146Z,2.20
2023-03-06T14:58:56.308Z,1.75
2023-03-06T15:01:30.944Z,1.77
2023-03-06T15:04:01.129Z,2.42
2023-03-06T15:06:34.376Z,1.55
2023-03-06T15:09:07.742Z,2.45
2023-03-06T15:12:00.864Z,2.92
2023-03-06T15:14:43.704Z,2.17
2023-03-06T15:17:27.160Z,3.22
2023-03-06T15:19:56.703Z,2.55
2023-03-06T15:22:31.516Z,2.55
2023-03-06T15:25:19.962Z,2.35
2023-03-06T15:27:52.862Z,2.33
2023-03-06T15:30:27.119Z,2.92
2023-03-06T15:35:56.963Z,1.90
2023-03-06T15:38:32.919Z,1.95
2023-03-06T15:41:03.099Z,2.30
2023-03-06T15:43:36.213Z,3.13
2023-03-06T15:46:06.416Z,2.03
2023-03-06T15:48:35.251Z,1.55
2023-03-06T15:51:05.708Z,2.42
2023-03-06T15:53:33.640Z,2.05
2023-03-06T15:56:02.459Z,2.60
2023-03-06T15:58:32.502Z,2.25
2023-03-06T16:01:00.435Z,2.00
2023-03-06T16:03:32.213Z,2.30
2023-03-06T16:06:00.221Z,2.38
2023-03-06T16:08:29.840Z,2.22
2023-03-06T16:10:57.835Z,2.67
2023-03-06T16:13:28.083Z,3.20
2023-03-06T16:15:56.798Z,2.70
2023-03-06T16:18:24.915Z,2.08
2023-03-06T16:20:52.868Z,4.07
2023-03-06T16:23:20.781Z,2.45
2023-03-06T16:25:50.702Z,3.58
2023-03-06T16:28:19.060Z,3.30
2023-03-06T16:30:48.050Z,4.50
2023-03-06T16:33:16.085Z,3.75
2023-03-06T16:35:46.738Z,3.92
2023-03-06T16:38:18.040Z,4.03
2023-03-06T16:40:46.164Z,3.25
2023-03-06T16:43:16.446Z,4.15
2023-03-06T16:45:44.772Z,3.20
2023-03-06T16:48:18.733Z,4.10
2023-03-06T16:50:48.106Z,3.28
2023-03-06T16:53:19.650Z,2.75
2023-03-06T16:55:50.384Z,2.25
2023-03-06T16:58:19.921Z,4.68
2023-03-06T17:00:47.886Z,4.85
2023-03-06T17:03:17.990Z,4.30
2023-03-06T17:05:46.198Z,4.70
2023-03-06T17:08:15.310Z,3.75
2023-03-06T17:10:44.901Z,3.83
2023-03-06T17:13:13.153Z,3.67
2023-03-06T17:15:56.703Z,6.80
2023-03-06T17:18:28.328Z,4.72
2023-03-06T17:20:58.749Z,5.38
2023-03-06T17:23:30.407Z,3.72
2023-03-06T17:26:06.895Z,3.65
2023-03-06T17:28:53.393Z,4.22
2023-03-06T17:31:23.842Z,4.75
2023-03-06T17:33:52.730Z,5.05
2023-03-06T17:36:21.272Z,3.80
2023-03-06T17:38:52.166Z,3.88
2023-03-06T17:41:24.322Z,3.08
2023-03-06T17:43:52.780Z,4.43
2023-03-06T17:46:25.228Z,4.72
2023-03-06T17:48:53.203Z,3.80
2023-03-06T17:51:29.720Z,4.53
2023-03-06T17:53:57.687Z,7.45
2023-03-06T17:56:27.347Z,11.90
2023-03-06T17:58:59.603Z,16.42
2023-03-06T18:01:30.188Z,18.92
2023-03-06T18:03:59.706Z,21.52
2023-03-06T18:06:30.090Z,16.80
2023-03-06T18:08:58.311Z,14.65
2023-03-06T18:11:27.991Z,17.83
2023-03-06T18:13:56.247Z,14.20
2023-03-06T18:16:26.259Z,20.65
2023-03-06T18:18:57.144Z,13.65
2023-03-06T18:21:35.542Z,19.55
2023-03-06T18:24:03.423Z,14.40
2023-03-06T18:26:32.136Z,22.55
2023-03-06T18:29:03.685Z,16.70
2023-03-06T18:31:35.346Z,15.60
2023-03-06T18:34:06.467Z,15.32
2023-03-06T18:36:35.579Z,14.20
2023-03-06T18:39:06.156Z,13.60
2023-03-06T18:41:34.140Z,13.77
2023-03-06T18:44:02.699Z,12.57
2023-03-06T18:46:32.208Z,13.88
2023-03-06T18:49:00.441Z,12.52
2023-03-06T18:51:35.751Z,9.50
2023-03-06T18:54:09.577Z,9.98
2023-03-06T18:56:39.330Z,10.88
2023-03-06T18:59:11.803Z,10.57
2023-03-06T19:01:40.348Z,13.20
2023-03-06T19:04:08.328Z,10.52
2023-03-06T19:06:38.131Z,10.10
2023-03-06T19:09:06.505Z,8.20
2023-03-06T19:11:35.287Z,8.38
2023-03-06T19:14:03.375Z,10.95
2023-03-06T19:16:34.814Z,8.93
2023-03-06T19:19:02.823Z,8.77
2023-03-06T19:21:31.019Z,10.40
2023-03-06T19:24:03.224Z,7.65
2023-03-06T19:26:32.918Z,7.30
2023-03-06T19:29:00.882Z,9.88
2023-03-06T19:31:29.563Z,7.50
2023-03-06T19:33:58.182Z,6.93
2023-03-06T19:36:33.497Z,8.35
2023-03-06T19:39:06.502Z,8.70
2023-03-06T19:41:34.856Z,7.40
2023-03-06T19:44:05.607Z,6.28
2023-03-06T19:46:34.502Z,7.60
2023-03-06T19:49:09.562Z,7.55
2023-03-06T19:51:37.498Z,7.10
2023-03-06T19:54:06.829Z,7.00
2023-03-06T19:56:34.830Z,8.32
2023-03-06T19:59:02.819Z,6.10
2023-03-06T20:01:30.750Z,9.98
2023-03-06T20:03:59.927Z,7.35
2023-03-06T20:06:29.610Z,10.55
2023-03-06T20:08:57.544Z,12.95
2023-03-06T20:11:29.729Z,12.95
2023-03-06T20:13:58.626Z,8.85
2023-03-06T20:16:27.794Z,9.70
2023-03-06T20:18:57.992Z,7.78
2023-03-06T20:21:26.488Z,7.45
2023-03-06T20:23:56.835Z,8.48
2023-03-06T20:26:31.037Z,6.93
2023-03-06T20:28:59.265Z,9.82
2023-03-06T20:31:32.013Z,6.80
2023-03-06T20:34:04.707Z,8.50
2023-03-06T20:36:35.891Z,8.30
2023-03-06T20:39:06.006Z,7.10
2023-03-06T20:41:35.414Z,8.40
2023-03-06T20:44:05.647Z,5.72
2023-03-06T20:46:34.184Z,5.95
2023-03-06T20:49:02.534Z,6.38
2023-03-06T20:51:32.250Z,6.65
2023-03-06T20:54:02.112Z,6.40
2023-03-06T20:56:32.172Z,8.35
2023-03-06T20:59:02.112Z,6.38
2023-03-06T21:01:31.910Z,6.53
2023-03-06T21:04:00.965Z,7.45
2023-03-06T21:06:29.985Z,7.55
2023-03-06T21:08:58.461Z,6.43
2023-03-06T21:11:26.876Z,7.95
2023-03-06T21:13:55.585Z,6.30
2023-03-06T21:16:27.119Z,5.97
2023-03-06T21:18:58.409Z,5.53
2023-03-06T21:21:31.769Z,7.60
2023-03-06T21:24:00.041Z,8.20
2023-03-06T21:26:30.387Z,6.03
2023-03-06T21:28:59.173Z,5.57
2023-03-06T21:31:29.332Z,6.68
2023-03-06T21:34:01.540Z,5.55
2023-03-06T21:36:30.843Z,7.75
2023-03-06T21:38:58.903Z,4.28
2023-03-06T21:41:28.883Z,4.70
2023-03-06T21:43:58.246Z,5.45
2023-03-06T21:46:26.813Z,6.28
2023-03-06T21:48:57.604Z,4.47
2023-03-06T21:51:26.869Z,5.88
2023-03-06T21:53:55.822Z,4.95
2023-03-06T21:56:28.345Z,5.68
2023-03-06T21:58:56.597Z,3.97
2023-03-06T22:01:27.188Z,5.38
2023-03-06T22:03:58.895Z,4.82
2023-03-06T22:06:28.821Z,5.68
2023-03-06T22:09:00.993Z,6.70
2023-03-06T22:11:31.180Z,5.60
2023-03-06T22:13:59.458Z,4.90
2023-03-06T22:16:27.502Z,6.15
2023-03-06T22:18:57.134Z,5.63
2023-03-06T22:21:26.969Z,4.00
2023-03-06T22:24:01.295Z,3.83
2023-03-06T22:26:32.527Z,4.15
2023-03-06T22:29:00.675Z,6.20
2023-03-06T22:31:29.693Z,6.00
2023-03-06T22:34:01.539Z,4.75
2023-03-06T22:36:31.873Z,5.38
2023-03-06T22:39:01.958Z,3.00
2023-03-06T22:41:30.446Z,8.18
2023-03-06T22:44:05.175Z,6.32
2023-03-06T22:46:33.770Z,5.45
2023-03-06T22:49:05.062Z,5.80
2023-03-06T22:51:32.974Z,5.38
2023-03-06T22:54:01.440Z,4.95
2023-03-06T22:56:29.376Z,4.45
2023-03-06T22:59:00.659Z,5.90
2023-03-06T23:01:30.473Z,4.13
2023-03-06T23:03:59.759Z,5.13
2023-03-06T23:06:33.733Z,4.13
2023-03-06T23:09:06.820Z,5.45
2023-03-06T23:11:53.549Z,4.05
2023-03-06T23:14:40.140Z,4.25
2023-03-06T23:17:26.884Z,4.20
2023-03-06T23:20:14.818Z,3.78
2023-03-06T23:23:03.594Z,4.97
2023-03-06T23:25:43.444Z,4.95
2023-03-06T23:28:11.706Z,3.67
2023-03-06T23:30:40.134Z,4.20
2023-03-06T23:33:08.965Z,3.92
2023-03-06T23:35:38.910Z,2.72
2023-03-06T23:38:08.346Z,4.05
2023-03-06T23:40:38.577Z,3.47
2023-03-06T23:43:06.785Z,4.88
2023-03-06T23:45:34.945Z,4.43
2023-03-06T23:48:02.916Z,3.40
2023-03-06T23:50:31.763Z,4.55
2023-03-06T23:53:02.308Z,4.80
2023-03-06T23:55:41.427Z,4.22
2023-03-06T23:58:09.477Z,3.10
